Time;durP1;ratioP1;P1;durP2;ratioP2;P2;SDS_P1;SDS_P2;PMS_P1;PMS_P2;Temp;Humidity;BMP_temperature;BMP_pressure;BME280_temperature;BME280_humidity;BME280_pressure;Samples;Min_cycle;Max_cycle;Signal;HPM_P1;HPM_P2
2024/01/02 00:01:00;;;;;;;206.13;118.97;;;4.60;99.90;;;;;;5084121;28;20066;-76
2024/01/02 00:03:32;;;;;;;217.48;126.78;;;4.60;99.90;;;;;;5089379;28;20035;-74
2024/01/02 00:06:00;;;;;;;213.27;123.10;;;4.60;99.90;;;;;;5083120;28;20077;-74
2024/01/02 00:08:28;;;;;;;205.35;118.38;;;4.40;99.90;;;;;;5101181;28;20098;-74
2024/01/02 00:11:18;;;;;;;181.55;111.55;;;4.30;99.90;;;;;;5088465;28;20081;-76
2024/01/02 00:14:08;;;;;;;192.00;110.78;;;4.20;99.90;;;;;;5104059;28;20044;-77
2024/01/02 00:16:44;;;;;;;183.57;107.30;;;4.30;99.90;;;;;;5104321;28;20055;-77
2024/01/02 00:19:27;;;;;;;170.35;100.95;;;4.40;99.90;;;;;;5104604;28;20068;-76
2024/01/02 00:21:59;;;;;;;162.52;95.57;;;4.50;99.90;;;;;;5106353;28;20107;-76
2024/01/02 00:24:39;;;;;;;142.15;85.43;;;4.50;99.90;;;;;;5106662;28;20147;-76
2024/01/02 00:27:10;;;;;;;136.25;79.80;;;4.60;99.90;;;;;;5090677;28;20047;-74
2024/01/02 00:29:39;;;;;;;113.60;67.57;;;4.50;99.90;;;;;;5086936;28;20079;-74
2024/01/02 00:32:11;;;;;;;114.03;69.20;;;4.40;99.90;;;;;;5086545;28;20055;-74
2024/01/02 00:34:51;;;;;;;152.88;91.97;;;4.50;99.90;;;;;;5093390;28;20032;-76
2024/01/02 00:37:41;;;;;;;157.10;90.65;;;4.50;99.90;;;;;;5108685;28;20032;-76
2024/01/02 00:40:11;;;;;;;142.27;86.80;;;4.60;99.90;;;;;;5105899;28;20047;-76
2024/01/02 00:42:45;;;;;;;147.80;91.82;;;4.60;99.90;;;;;;5108159;28;20044;-75
2024/01/02 00:45:19;;;;;;;166.80;100.20;;;4.60;99.90;;;;;;5091823;28;20040;-75
2024/01/02 00:47:48;;;;;;;185.13;108.47;;;4.60;99.90;;;;;;5083317;28;20036;-74
2024/01/02 00:50:26;;;;;;;195.18;112.40;;;4.60;99.90;;;;;;5075033;28;20040;-75
2024/01/02 00:53:03;;;;;;;206.75;120.38;;;4.60;99.90;;;;;;5087561;28;20036;-74
2024/01/02 00:55:40;;;;;;;198.15;111.60;;;4.60;99.90;;;;;;5081957;28;20037;-74
2024/01/02 00:58:21;;;;;;;156.05;90.78;;;4.50;99.90;;;;;;5110511;28;20513;-75
2024/01/02 01:00:58;;;;;;;167.00;94.10;;;4.60;99.90;;;;;;5104313;28;20032;-76
2024/01/02 01:03:30;;;;;;;140.18;79.13;;;4.50;99.90;;;;;;5089192;28;20491;-74
2024/01/02 01:06:02;;;;;;;182.10;102.93;;;4.50;99.90;;;;;;5085311;28;20059;-74
2024/01/02 01:08:39;;;;;;;158.35;92.05;;;4.50;99.90;;;;;;5086137;28;20059;-75
2024/01/02 01:11:09;;;;;;;162.15;91.30;;;4.50;99.90;;;;;;5089277;28;20139;-75
2024/01/02 01:13:46;;;;;;;155.25;88.20;;;4.40;99.90;;;;;;5089991;28;20036;-76
2024/01/02 01:16:19;;;;;;;180.38;102.60;;;4.40;99.90;;;;;;5092941;28;20050;-75
2024/01/02 01:18:51;;;;;;;162.30;92.55;;;4.40;99.90;;;;;;5101426;28;20052;-75
2024/01/02 01:21:32;;;;;;;220.10;119.80;;;4.30;99.90;;;;;;5107902;28;20059;-75
2024/01/02 01:24:06;;;;;;;190.63;105.63;;;4.10;99.90;;;;;;5108735;28;20052;-76
2024/01/02 01:26:40;;;;;;;176.87;98.97;;;4.00;99.90;;;;;;5092328;28;20089;-76
2024/01/02 01:29:12;;;;;;;161.00;93.82;;;4.10;99.90;;;;;;5085453;28;20331;-77
2024/01/02 01:31:49;;;;;;;164.57;95.73;;;4.20;99.90;;;;;;5086014;28;20048;-75
2024/01/02 01:34:27;;;;;;;171.02;98.45;;;4.20;99.90;;;;;;5083241;28;20047;-74
2024/01/02 01:36:57;;;;;;;177.60;102.82;;;4.20;99.90;;;;;;5100689;28;20384;-74
2024/01/02 01:39:25;;;;;;;183.15;106.38;;;4.30;99.90;;;;;;5086356;28;20054;-73
2024/01/02 01:42:00;;;;;;;169.77;95.63;;;4.20;99.90;;;;;;5082636;28;20159;-74
2024/01/02 01:44:31;;;;;;;175.65;104.68;;;4.30;99.90;;;;;;5084441;28;20102;-75
2024/01/02 01:47:02;;;;;;;175.23;103.43;;;4.20;99.90;;;;;;5090442;28;20040;-76
2024/01/02 01:49:47;;;;;;;175.13;102.20;;;4.00;99.90;;;;;;5098093;28;20050;-74
2024/01/02 01:52:23;;;;;;;154.68;92.70;;;3.90;99.90;;;;;;5093380;28;20402;-75
2024/01/02 01:54:57;;;;;;;151.43;90.38;;;3.90;99.90;;;;;;5071339;28;20404;-74
2024/01/02 01:57:27;;;;;;;133.30;79.03;;;3.80;99.90;;;;;;5078552;28;20050;-74
2024/01/02 02:00:00;;;;;;;124.55;74.60;;;3.80;99.90;;;;;;5085136;28;20043;-75
2024/01/02 02:02:35;;;;;;;112.03;68.95;;;3.90;99.90;;;;;;5084764;28;20044;-75
2024/01/02 02:05:05;;;;;;;;;;;3.90;99.90;;;;;;5084886;28;20043;-75
2024/01/02 02:07:34;;;;;;;112.95;68.22;;;3.90;99.90;;;;;;5087124;28;19965;-76
2024/01/02 02:10:05;;;;;;;109.15;65.40;;;3.90;99.90;;;;;;5091518;28;20040;-76
2024/01/02 02:12:33;;;;;;;107.07;65.18;;;3.90;99.90;;;;;;5095955;28;20043;-75
2024/01/02 02:15:03;;;;;;;105.07;63.30;;;3.90;99.90;;;;;;5089278;28;20099;-76
2024/01/02 02:17:33;;;;;;;112.32;66.68;;;3.80;99.90;;;;;;5083514;28;20056;-74
2024/01/02 02:20:02;;;;;;;104.78;62.92;;;3.70;99.90;;;;;;5081768;28;20496;-74
2024/01/02 02:22:35;;;;;;;98.53;61.28;;;3.80;99.90;;;;;;5085304;28;20052;-77
2024/01/02 02:25:09;;;;;;;97.55;60.05;;;3.80;99.90;;;;;;5086171;28;20482;-74
2024/01/02 02:27:37;;;;;;;118.90;70.65;;;3.70;99.90;;;;;;5091295;28;20139;-74
2024/01/02 02:30:13;;;;;;;94.53;58.67;;;3.90;99.90;;;;;;5076260;28;20040;-74
2024/01/02 02:32:40;;;;;;;88.25;53.97;;;3.60;99.90;;;;;;5078988;28;20040;-74
2024/01/02 02:35:08;;;;;;;88.78;55.30;;;3.40;99.90;;;;;;5082565;28;20048;-73
2024/01/02 02:37:40;;;;;;;92.05;57.28;;;3.20;99.90;;;;;;5088956;28;20074;-75
2024/01/02 02:40:11;;;;;;;96.72;58.53;;;3.30;99.90;;;;;;5085126;28;20048;-75
2024/01/02 02:42:40;;;;;;;105.35;64.60;;;3.20;99.90;;;;;;5093088;28;20039;-75
2024/01/02 02:45:11;;;;;;;140.05;75.10;;;3.30;99.90;;;;;;5093983;28;20044;-75
2024/01/02 02:47:42;;;;;;;138.05;75.28;;;3.30;99.90;;;;;;5092470;28;20495;-75
2024/01/02 02:50:13;;;;;;;116.80;63.10;;;3.30;99.90;;;;;;5096226;28;20130;-75
2024/01/02 02:52:43;;;;;;;104.53;57.67;;;3.20;99.90;;;;;;5091497;28;20244;-77
2024/01/02 02:55:13;;;;;;;100.63;56.25;;;3.20;99.90;;;;;;5090620;28;20064;-78
2024/01/02 02:57:42;;;;;;;110.35;61.13;;;3.20;99.90;;;;;;5098987;28;20054;-76
2024/01/02 03:00:13;;;;;;;111.57;62.47;;;3.20;99.90;;;;;;5112272;28;20502;-75
2024/01/02 03:02:48;;;;;;;104.07;56.95;;;3.20;99.90;;;;;;5089741;28;20454;-74
2024/01/02 03:05:16;;;;;;;109.97;60.83;;;3.20;99.90;;;;;;5085262;28;20109;-74
2024/01/02 03:07:46;;;;;;;112.15;60.75;;;3.10;99.90;;;;;;5086751;28;20044;-74
2024/01/02 03:10:18;;;;;;;118.93;62.88;;;3.20;99.90;;;;;;5088388;28;20051;-77
2024/01/02 03:12:47;;;;;;;134.30;67.85;;;3.10;99.90;;;;;;5087606;28;20058;-76
2024/01/02 03:15:15;;;;;;;118.55;62.80;;;3.00;99.90;;;;;;5124195;28;20036;-75
2024/01/02 03:17:47;;;;;;;119.90;64.47;;;2.90;99.90;;;;;;5101529;28;20048;-76
2024/01/02 03:20:15;;;;;;;115.68;66.22;;;2.80;99.90;;;;;;5086694;28;20093;-74
2024/01/02 03:22:43;;;;;;;98.75;56.65;;;2.80;99.90;;;;;;5107297;28;20040;-74
2024/01/02 03:25:15;;;;;;;116.15;62.45;;;2.80;99.90;;;;;;5088531;28;20086;-77
2024/01/02 03:27:42;;;;;;;104.22;58.97;;;2.90;99.90;;;;;;5087642;28;20138;-74
2024/01/02 03:30:11;;;;;;;153.45;73.18;;;2.90;99.90;;;;;;5091381;28;20088;-75
2024/01/02 03:32:43;;;;;;;113.25;62.03;;;2.80;99.90;;;;;;5085249;28;20135;-75
2024/01/02 03:35:13;;;;;;;110.65;56.45;;;2.70;99.90;;;;;;5087059;28;20689;-75
2024/01/02 03:37:43;;;;;;;96.78;51.95;;;2.60;99.90;;;;;;5087796;28;20051;-74
2024/01/02 03:40:12;;;;;;;86.90;49.55;;;2.60;99.90;;;;;;5090146;28;20488;-75
2024/01/02 03:42:41;;;;;;;106.93;57.72;;;2.60;99.90;;;;;;5094433;28;20320;-75
2024/01/02 03:45:10;;;;;;;114.45;58.92;;;2.60;99.90;;;;;;5088858;28;20052;-75
2024/01/02 03:47:38;;;;;;;130.93;63.35;;;2.60;99.90;;;;;;5087193;28;20124;-75
2024/01/02 03:50:07;;;;;;;120.28;61.33;;;2.60;99.90;;;;;;5106382;28;20040;-74
2024/01/02 03:52:37;;;;;;;125.93;60.47;;;2.50;99.90;;;;;;5108402;28;20016;-75
2024/01/02 03:55:05;;;;;;;124.30;59.33;;;2.50;99.90;;;;;;5098430;28;20071;-75
2024/01/02 03:57:34;;;;;;;102.35;51.10;;;2.50;99.90;;;;;;5100297;28;20044;-74
2024/01/02 04:00:04;;;;;;;110.53;51.03;;;2.40;99.90;;;;;;5088034;28;20040;-74
2024/01/02 04:02:32;;;;;;;108.22;50.20;;;2.40;99.90;;;;;;5104589;28;20044;-75
2024/01/02 04:05:00;;;;;;;91.78;44.28;;;2.40;99.90;;;;;;5088207;28;20044;-76
2024/01/02 04:07:28;;;;;;;77.93;40.08;;;2.40;99.90;;;;;;5089505;28;20069;-76
2024/01/02 04:09:55;;;;;;;81.43;41.40;;;2.30;99.90;;;;;;5095344;28;20060;-75
2024/01/02 04:12:23;;;;;;;94.38;52.92;;;2.20;99.90;;;;;;5096632;28;20070;-75
2024/01/02 04:14:50;;;;;;;102.88;54.85;;;2.20;99.90;;;;;;5095748;28;20050;-74
2024/01/02 04:17:19;;;;;;;126.13;59.88;;;2.20;99.90;;;;;;5089715;28;20040;-75
2024/01/02 04:19:50;;;;;;;108.15;58.00;;;2.20;99.90;;;;;;5087577;28;20048;-75
2024/01/02 04:22:19;;;;;;;100.15;53.00;;;2.30;99.90;;;;;;5097973;28;20262;-74
2024/01/02 04:24:47;;;;;;;91.18;48.38;;;2.30;99.90;;;;;;5101545;28;20040;-73
2024/01/02 04:27:14;;;;;;;101.82;48.40;;;2.30;99.90;;;;;;5092445;28;20108;-76
2024/01/02 04:29:42;;;;;;;92.22;46.80;;;2.30;99.90;;;;;;5077122;28;20049;-76
2024/01/02 04:32:10;;;;;;;88.78;44.33;;;2.30;99.90;;;;;;5110456;28;20044;-75
2024/01/02 04:34:39;;;;;;;91.10;42.10;;;2.30;99.90;;;;;;5093941;28;20051;-74
2024/01/02 04:37:06;;;;;;;92.50;45.28;;;2.30;99.90;;;;;;5109412;28;20044;-77
2024/01/02 04:39:34;;;;;;;86.45;43.40;;;2.30;99.90;;;;;;5097319;28;20043;-75
2024/01/02 04:42:02;;;;;;;138.48;50.83;;;2.30;99.90;;;;;;5092341;28;20083;-74
2024/01/02 04:44:30;;;;;;;97.93;43.83;;;2.20;99.90;;;;;;5082461;28;20045;-74
2024/01/02 04:46:58;;;;;;;97.53;45.33;;;2.00;99.90;;;;;;5099809;28;20071;-75
2024/01/02 04:49:26;;;;;;;69.25;38.20;;;2.00;99.90;;;;;;5087318;28;20445;-75
2024/01/02 04:51:57;;;;;;;64.97;36.85;;;2.00;99.90;;;;;;5087297;28;20126;-73
2024/01/02 04:54:27;;;;;;;77.80;42.60;;;1.90;99.90;;;;;;5087157;28;20043;-75
2024/01/02 04:56:56;;;;;;;89.78;44.40;;;2.10;99.90;;;;;;5089876;28;20155;-75
2024/01/02 04:59:24;;;;;;;90.60;44.95;;;2.10;99.90;;;;;;5088638;28;20044;-76
2024/01/02 05:01:54;;;;;;;97.45;48.22;;;2.10;99.90;;;;;;5091367;28;20073;-75
2024/01/02 05:04:22;;;;;;;83.95;47.47;;;2.10;99.90;;;;;;5085561;28;20044;-76
2024/01/02 05:06:50;;;;;;;86.05;47.22;;;2.10;99.90;;;;;;5092327;28;20048;-75
2024/01/02 05:09:26;;;;;;;79.57;41.25;;;2.10;99.90;;;;;;5107043;28;20027;-74
2024/01/02 05:11:54;;;;;;;84.57;44.83;;;2.10;99.90;;;;;;5105779;28;20050;-78
2024/01/02 05:14:22;;;;;;;75.07;41.92;;;2.00;99.90;;;;;;5113876;28;20120;-75
2024/01/02 05:16:50;;;;;;;76.25;42.03;;;2.00;99.90;;;;;;5109103;28;20024;-74
2024/01/02 05:19:19;;;;;;;77.32;42.80;;;1.90;99.90;;;;;;5107705;28;20046;-75
2024/01/02 05:21:47;;;;;;;75.45;43.15;;;1.90;99.90;;;;;;5108108;28;20112;-77
2024/01/02 05:24:14;;;;;;;90.68;47.45;;;1.90;99.90;;;;;;5107058;28;20044;-77
2024/01/02 05:26:43;;;;;;;86.43;48.42;;;1.90;99.90;;;;;;5108329;28;20053;-79
2024/01/02 05:29:12;;;;;;;86.70;49.45;;;1.80;99.90;;;;;;5106199;28;20071;-76
2024/01/02 05:31:41;;;;;;;73.57;44.85;;;1.80;99.90;;;;;;5093508;28;20074;-72
2024/01/02 05:34:09;;;;;;;74.60;42.22;;;1.80;99.90;;;;;;5083592;28;20102;-73
2024/01/02 05:36:37;;;;;;;78.20;46.63;;;1.80;99.90;;;;;;5104535;28;20047;-75
2024/01/02 05:39:04;;;;;;;84.43;49.05;;;1.80;99.90;;;;;;5112860;28;20055;-75
2024/01/02 05:41:38;;;;;;;84.07;45.85;;;1.70;99.90;;;;;;5100231;28;20112;-74
2024/01/02 05:44:08;;;;;;;66.65;41.03;;;1.70;99.90;;;;;;5099610;28;20054;-74
2024/01/02 05:46:36;;;;;;;75.95;42.80;;;1.60;99.90;;;;;;5123677;28;20039;-76
2024/01/02 05:49:03;;;;;;;75.18;46.70;;;1.70;99.90;;;;;;5110141;28;20035;-77
2024/01/02 05:51:32;;;;;;;73.10;45.35;;;1.50;99.90;;;;;;5104914;28;20085;-75
2024/01/02 05:54:00;;;;;;;76.40;44.67;;;1.50;99.90;;;;;;5105100;28;20031;-74
2024/01/02 05:56:33;;;;;;;85.60;53.28;;;1.50;99.90;;;;;;5107303;28;20024;-74
2024/01/02 05:59:03;;;;;;;88.68;54.35;;;1.50;99.90;;;;;;5109573;28;20024;-76
2024/01/02 06:01:33;;;;;;;104.45;55.67;;;1.50;99.90;;;;;;5102573;28;20125;-74
2024/01/02 06:04:01;;;;;;;176.50;87.32;;;1.40;99.90;;;;;;5111815;28;20051;-75
2024/01/02 06:06:29;;;;;;;157.52;82.38;;;1.40;99.90;;;;;;5096888;28;20201;-75
2024/01/02 06:08:59;;;;;;;136.95;70.80;;;1.40;99.90;;;;;;5108868;28;20032;-74
2024/01/02 06:11:27;;;;;;;132.30;68.03;;;1.40;99.90;;;;;;5110219;28;20062;-76
2024/01/02 06:13:54;;;;;;;105.32;58.05;;;1.40;99.90;;;;;;5111711;28;20035;-75
2024/01/02 06:16:22;;;;;;;96.82;53.95;;;1.30;99.90;;;;;;5089194;28;20066;-76
2024/01/02 06:18:51;;;;;;;112.13;62.78;;;1.30;99.90;;;;;;5087336;28;20043;-76
2024/01/02 06:21:19;;;;;;;113.20;64.95;;;1.30;99.90;;;;;;5076092;28;20049;-74
2024/01/02 06:23:47;;;;;;;107.53;65.40;;;1.20;99.90;;;;;;5083086;28;20344;-75
2024/01/02 06:26:15;;;;;;;108.20;68.05;;;1.30;99.90;;;;;;5089352;28;20050;-75
2024/01/02 06:28:46;;;;;;;131.75;83.53;;;1.30;99.90;;;;;;5094495;28;20040;-75
2024/01/02 06:31:14;;;;;;;151.77;97.35;;;1.30;99.90;;;;;;5096777;28;20051;-76
2024/01/02 06:33:44;;;;;;;161.65;107.00;;;1.20;99.90;;;;;;5098695;28;20040;-75
2024/01/02 06:36:14;;;;;;;184.20;127.03;;;1.20;99.90;;;;;;5104126;28;20044;-77
2024/01/02 06:38:45;;;;;;;190.50;121.57;;;1.20;99.90;;;;;;5100988;28;20048;-75
2024/01/02 06:41:15;;;;;;;120.45;72.55;;;1.30;99.90;;;;;;5104096;28;20040;-75
2024/01/02 06:43:47;;;;;;;106.82;63.75;;;1.30;99.90;;;;;;5085930;28;20044;-75
2024/01/02 06:46:19;;;;;;;101.65;61.55;;;1.30;99.90;;;;;;5092176;28;20078;-74
2024/01/02 06:48:48;;;;;;;94.78;57.90;;;1.30;99.90;;;;;;5096710;28;20134;-77
2024/01/02 06:51:17;;;;;;;112.45;66.80;;;1.30;99.90;;;;;;5103078;28;20054;-76
2024/01/02 06:53:47;;;;;;;133.98;82.47;;;1.40;99.90;;;;;;5107885;28;20039;-74
2024/01/02 06:56:15;;;;;;;137.38;80.47;;;1.40;99.90;;;;;;5107006;28;20044;-76
2024/01/02 06:58:44;;;;;;;137.25;77.90;;;1.40;99.90;;;;;;5101840;28;20494;-76
2024/01/02 07:01:16;;;;;;;115.68;67.75;;;1.40;99.90;;;;;;5103814;28;20048;-76
2024/01/02 07:03:44;;;;;;;101.47;61.38;;;1.40;99.90;;;;;;5095772;28;20049;-74
2024/01/02 07:06:14;;;;;;;98.82;58.35;;;1.40;99.90;;;;;;5105083;28;20088;-75
2024/01/02 07:08:45;;;;;;;110.00;69.35;;;1.50;99.90;;;;;;5110358;28;20042;-75
2024/01/02 07:11:13;;;;;;;111.55;65.72;;;1.60;99.90;;;;;;5130126;27;20043;-75
2024/01/02 07:13:41;;;;;;;139.07;87.32;;;1.60;99.90;;;;;;5124899;28;20046;-75
2024/01/02 07:16:12;;;;;;;124.57;79.00;;;1.60;99.90;;;;;;5105899;28;20196;-76
2024/01/02 07:18:40;;;;;;;109.80;65.97;;;1.60;99.90;;;;;;5129245;28;20032;-75
2024/01/02 07:21:20;;;;;;;125.63;75.85;;;1.80;99.90;;;;;;5111626;28;20027;-75
2024/01/02 07:23:52;;;;;;;148.82;90.57;;;1.80;99.90;;;;;;5100151;28;20048;-78
2024/01/02 07:26:23;;;;;;;158.48;94.78;;;1.90;99.90;;;;;;5105811;28;20120;-74
2024/01/02 07:28:51;;;;;;;141.52;88.95;;;1.90;99.90;;;;;;5106119;28;20066;-75
2024/01/02 07:31:23;;;;;;;104.93;66.50;;;2.00;99.90;;;;;;5088620;28;20061;-74
2024/01/02 07:33:54;;;;;;;106.57;70.40;;;2.10;99.90;;;;;;5103856;28;20043;-74
2024/01/02 07:36:30;;;;;;;107.05;67.65;;;2.20;46.30;;;;;;5098078;28;20047;-74
2024/01/02 07:39:03;;;;;;;104.35;68.60;;;2.30;6.60;;;;;;5085314;28;20066;-73
2024/01/02 07:41:39;;;;;;;99.20;66.38;;;2.50;1.00;;;;;;5089262;28;20074;-73
2024/01/02 07:44:15;;;;;;;103.97;70.38;;;2.60;1.00;;;;;;5096541;28;20050;-76
2024/01/02 07:46:50;;;;;;;109.38;71.85;;;2.90;1.00;;;;;;5102995;28;20047;-74
2024/01/02 07:49:21;;;;;;;104.75;71.45;;;3.10;1.00;;;;;;5089246;28;20048;-76
2024/01/02 07:51:51;;;;;;;113.75;76.13;;;3.10;99.90;;;;;;5092220;28;20048;-75
2024/01/02 07:54:27;;;;;;;115.47;77.32;;;3.20;99.90;;;;;;5088997;28;20558;-74
2024/01/02 07:56:59;;;;;;;107.72;70.53;;;3.30;70.30;;;;;;5092122;28;20044;-74
2024/01/02 07:59:39;;;;;;;101.35;66.55;;;3.50;1.00;;;;;;5092423;28;20039;-75
2024/01/02 08:02:27;;;;;;;104.20;68.15;;;3.60;99.90;;;;;;5093621;28;20448;-75
2024/01/02 08:05:04;;;;;;;101.60;65.95;;;3.60;1.00;;;;;;5097047;28;20067;-75
2024/01/02 08:07:45;;;;;;;102.93;68.00;;;3.50;1.00;;;;;;5106233;28;20051;-75
2024/01/02 08:10:39;;;;;;;103.43;67.32;;;3.50;99.90;;;;;;5104008;28;20048;-76
2024/01/02 08:13:29;;;;;;;;;;;;;;;;;;;;;
2024/01/02 08:16:15;;;;;;;129.70;86.35;;;3.50;1.00;;;;;;5093452;28;20040;-76
2024/01/02 08:18:50;;;;;;;129.88;87.15;;;3.50;99.90;;;;;;5109854;28;20040;-75
2024/01/02 08:21:27;;;;;;;132.85;89.15;;;3.60;1.00;;;;;;5150619;22;20623;-81
2024/01/02 08:23:55;;;;;;;128.68;84.45;;;3.60;1.00;;;;;;5142161;27;20035;-81
2024/01/02 08:26:24;;;;;;;125.18;81.85;;;3.70;1.00;;;;;;5123802;27;20043;-80
2024/01/02 08:28:51;;;;;;;114.63;76.47;;;3.80;1.00;;;;;;5143544;27;20071;-80
2024/01/02 08:31:18;;;;;;;127.95;84.07;;;4.00;99.90;;;;;;5141977;27;20067;-81
2024/01/02 08:33:46;;;;;;;155.45;104.00;;;4.10;1.00;;;;;;5141890;27;20050;-80
2024/01/02 08:36:13;;;;;;;125.45;84.20;;;4.20;1.00;;;;;;5142500;27;20035;-79
2024/01/02 08:38:41;;;;;;;118.50;80.90;;;4.20;99.90;;;;;;5142574;27;20401;-81
2024/01/02 08:41:09;;;;;;;118.32;77.72;;;4.20;21.60;;;;;;5142707;27;20062;-80
2024/01/02 08:43:37;;;;;;;136.13;88.57;;;4.20;99.90;;;;;;5142448;27;20042;-79
2024/01/02 08:46:05;;;;;;;144.23;88.35;;;4.20;99.90;;;;;;5138281;27;20046;-80
2024/01/02 08:48:33;;;;;;;124.72;77.63;;;4.20;1.00;;;;;;5131256;27;20111;-81
2024/01/02 08:51:00;;;;;;;115.45;72.57;;;4.30;1.00;;;;;;5141450;27;20480;-80
2024/01/02 08:53:28;;;;;;;107.60;66.85;;;4.40;91.30;;;;;;5141915;27;20073;-80
2024/01/02 08:55:56;;;;;;;99.50;62.72;;;4.50;1.00;;;;;;5123141;27;20094;-82
2024/01/02 08:58:23;;;;;;;104.13;64.95;;;4.50;99.90;;;;;;5142379;27;20038;-83
2024/01/02 09:00:52;;;;;;;98.97;61.97;;;4.60;1.00;;;;;;5140481;27;20043;-82
2024/01/02 09:03:19;;;;;;;102.32;64.20;;;4.80;1.00;;;;;;5141432;27;20427;-80
2024/01/02 09:05:47;;;;;;;100.00;61.97;;;5.00;1.00;;;;;;5141571;27;20038;-81
2024/01/02 09:08:15;;;;;;;100.30;61.67;;;5.10;1.00;;;;;;5141172;27;20039;-80
2024/01/02 09:10:43;;;;;;;96.63;59.42;;;5.30;92.50;;;;;;5141149;27;20043;-80
2024/01/02 09:13:11;;;;;;;92.25;59.30;;;5.40;99.90;;;;;;5140613;27;20043;-80
2024/01/02 09:15:39;;;;;;;92.53;58.40;;;5.50;1.00;;;;;;5140223;27;20058;-81
2024/01/02 09:18:08;;;;;;;84.55;53.53;;;5.50;1.00;;;;;;5130647;27;20039;-81
2024/01/02 09:20:36;;;;;;;84.65;53.35;;;5.50;1.00;;;;;;5121340;27;20055;-81
2024/01/02 09:23:03;;;;;;;87.38;55.05;;;5.50;93.80;;;;;;5141134;27;20530;-82
2024/01/02 09:25:32;;;;;;;100.53;62.75;;;5.50;99.90;;;;;;5140608;27;20421;-80
2024/01/02 09:28:02;;;;;;;143.75;86.85;;;5.60;99.90;;;;;;5142126;27;20254;-81
2024/01/02 09:30:30;;;;;;;195.30;109.97;;;5.60;99.90;;;;;;5140474;27;20123;-80
2024/01/02 09:32:58;;;;;;;167.38;95.95;;;5.70;1.00;;;;;;5122405;27;20097;-80
2024/01/02 09:35:27;;;;;;;191.77;107.35;;;5.90;1.00;;;;;;5141668;27;20063;-80
2024/01/02 09:37:54;;;;;;;184.63;104.80;;;6.00;1.00;;;;;;5140641;27;20084;-81
2024/01/02 09:40:43;;;;;;;191.95;108.25;;;6.10;99.90;;;;;;5140793;27;20516;-80
2024/01/02 09:43:18;;;;;;;179.15;101.68;;;6.10;99.90;;;;;;5140237;27;20035;-81
2024/01/02 09:45:56;;;;;;;147.10;89.75;;;6.30;99.90;;;;;;5122132;27;20582;-79
2024/01/02 09:48:49;;;;;;;147.50;89.50;;;6.40;1.00;;;;;;5140383;27;20059;-80
2024/01/02 09:51:29;;;;;;;141.32;86.63;;;6.60;99.90;;;;;;5141673;27;20039;-80
2024/01/02 09:54:22;;;;;;;136.93;82.80;;;6.70;99.90;;;;;;5140514;27;20054;-80
2024/01/02 09:56:58;;;;;;;135.07;78.20;;;6.90;1.00;;;;;;5140615;27;20068;-80
2024/01/02 09:59:39;;;;;;;130.93;78.63;;;6.90;1.00;;;;;;5142037;27;20043;-81
2024/01/02 10:02:25;;;;;;;124.38;75.72;;;7.00;99.90;;;;;;5143993;27;20069;-80
2024/01/02 10:05:08;;;;;;;129.15;79.40;;;7.10;99.90;;;;;;5142287;27;20527;-79
2024/01/02 10:08:07;;;;;;;114.65;71.50;;;7.30;1.00;;;;;;5142424;27;20062;-81
2024/01/02 10:10:44;;;;;;;117.88;74.72;;;7.40;1.00;;;;;;5125245;27;20298;-83
2024/01/02 10:13:23;;;;;;;114.10;73.90;;;7.40;99.90;;;;;;5124631;28;20106;-80
2024/01/02 10:16:00;;;;;;;117.13;72.18;;;7.50;99.90;;;;;;5118930;28;20103;-80
2024/01/02 10:18:36;;;;;;;110.35;72.28;;;7.50;99.90;;;;;;5119258;28;20041;-79
2024/01/02 10:21:13;;;;;;;109.70;67.57;;;7.70;99.90;;;;;;5118693;28;20094;-81
2024/01/02 10:23:59;;;;;;;102.15;65.63;;;7.80;1.00;;;;;;5119694;28;20406;-80
2024/01/02 10:26:30;;;;;;;108.35;70.57;;;7.90;1.00;;;;;;5124985;28;20085;-80
2024/01/02 10:29:04;;;;;;;105.90;67.25;;;8.00;99.90;;;;;;5119777;28;20036;-80
2024/01/02 10:31:40;;;;;;;105.32;66.90;;;8.20;99.90;;;;;;5098059;28;20082;-81
2024/01/02 10:34:12;;;;;;;;;;;8.30;1.00;;;;;;5118651;28;20051;-81
2024/01/02 10:36:48;;;;;;;74.22;49.05;;;8.40;99.90;;;;;;5109560;28;19920;-80
2024/01/02 10:39:26;;;;;;;72.50;47.65;;;8.50;1.00;;;;;;5118500;28;20050;-81
2024/01/02 10:41:58;;;;;;;62.88;40.33;;;8.60;1.00;;;;;;5119580;28;20038;-79
2024/01/02 10:44:38;;;;;;;72.15;40.40;;;8.70;1.00;;;;;;5119026;28;20051;-80
2024/01/02 10:47:14;;;;;;;63.17;40.72;;;8.80;1.00;;;;;;5100759;28;20042;-81
2024/01/02 10:49:46;;;;;;;61.47;40.92;;;8.90;1.00;;;;;;5119604;27;20044;-80
2024/01/02 10:52:18;;;;;;;61.28;40.05;;;9.10;99.90;;;;;;5121352;28;20104;-80
2024/01/02 10:55:01;;;;;;;61.58;39.45;;;9.20;88.40;;;;;;5118735;28;20055;-81
2024/01/02 10:57:44;;;;;;;43.10;28.42;;;9.30;1.00;;;;;;5100981;28;20039;-81
2024/01/02 11:00:20;;;;;;;41.00;27.88;;;9.40;99.90;;;;;;5117944;28;20034;-82
2024/01/02 11:02:56;;;;;;;41.22;27.30;;;9.60;99.90;;;;;;5120320;28;20039;-81
2024/01/02 11:05:31;;;;;;;41.03;26.50;;;9.70;66.70;;;;;;5118277;28;20047;-82
2024/01/02 11:08:06;;;;;;;43.03;27.48;;;9.80;1.00;;;;;;5118307;28;20097;-81
2024/01/02 11:10:41;;;;;;;38.92;25.55;;;9.80;1.00;;;;;;5124705;27;20039;-81
2024/01/02 11:13:12;;;;;;;40.85;27.70;;;9.90;1.00;;;;;;5122988;27;20071;-81
2024/01/02 11:15:42;;;;;;;41.55;27.45;;;10.00;1.00;;;;;;5123203;27;20027;-79
2024/01/02 11:18:12;;;;;;;36.88;24.42;;;10.10;1.00;;;;;;5124559;27;20031;-80
2024/01/02 11:20:50;;;;;;;29.63;20.88;;;10.20;99.90;;;;;;5123436;27;20513;-81
2024/01/02 11:23:20;;;;;;;32.67;21.17;;;10.30;99.90;;;;;;5123037;27;20355;-82
2024/01/02 11:25:55;;;;;;;29.10;20.70;;;10.30;1.00;;;;;;5103909;27;20035;-80
2024/01/02 11:28:27;;;;;;;31.95;21.13;;;10.40;1.00;;;;;;5123104;27;20043;-80
2024/01/02 11:30:55;;;;;;;30.95;21.55;;;10.40;1.00;;;;;;5122572;27;20046;-80
2024/01/02 11:33:31;;;;;;;30.05;19.35;;;10.40;1.00;;;;;;5122296;27;20067;-80
2024/01/02 11:36:13;;;;;;;33.72;21.17;;;10.40;1.00;;;;;;5122813;27;20492;-82
2024/01/02 11:38:56;;;;;;;31.10;19.50;;;10.50;1.00;;;;;;5123101;27;20065;-81
2024/01/02 11:41:38;;;;;;;27.48;18.42;;;10.50;1.00;;;;;;5122216;27;20047;-80
2024/01/02 11:44:16;;;;;;;26.70;15.98;;;10.60;1.00;;;;;;5103673;27;20040;-81
2024/01/02 11:46:49;;;;;;;26.65;17.27;;;10.70;1.00;;;;;;5123226;27;20099;-79
2024/01/02 11:49:19;;;;;;;27.27;18.13;;;10.70;1.00;;;;;;5103003;27;20050;-81
2024/01/02 11:51:56;;;;;;;24.42;16.83;;;10.80;1.00;;;;;;5122129;27;20038;-79
2024/01/02 11:54:35;;;;;;;23.33;14.80;;;10.90;1.00;;;;;;5124210;27;20448;-80
2024/01/02 11:57:11;;;;;;;24.10;15.82;;;10.90;99.90;;;;;;5121980;27;20067;-79
2024/01/02 11:59:50;;;;;;;33.28;22.98;;;11.00;99.90;;;;;;5128289;27;20043;-80
2024/01/02 12:02:25;;;;;;;21.77;14.57;;;11.00;99.90;;;;;;5122358;27;20036;-82
2024/01/02 12:05:08;;;;;;;18.20;13.35;;;11.00;99.90;;;;;;5121433;27;20076;-82
2024/01/02 12:07:41;;;;;;;21.42;14.93;;;11.10;99.90;;;;;;5103258;27;20099;-80
2024/01/02 12:10:09;;;;;;;20.77;13.60;;;11.10;99.90;;;;;;5121452;27;20123;-80
2024/01/02 12:12:48;;;;;;;16.20;11.05;;;11.10;99.90;;;;;;5121849;27;20043;-81
2024/01/02 12:15:19;;;;;;;16.35;10.65;;;11.20;99.90;;;;;;5095841;27;20047;-81
2024/01/02 12:17:54;;;;;;;19.20;12.70;;;11.20;99.90;;;;;;5121231;27;20097;-81
2024/01/02 12:20:24;;;;;;;15.75;9.57;;;11.40;88.90;;;;;;5122014;27;20101;-80
2024/01/02 12:22:52;;;;;;;10.95;7.63;;;11.60;25.60;;;;;;5121918;27;20051;-80
2024/01/02 12:25:20;;;;;;;16.08;11.27;;;11.60;1.00;;;;;;5121616;27;20035;-81
2024/01/02 12:27:53;;;;;;;16.80;9.27;;;11.60;1.00;;;;;;5121165;27;20505;-82
2024/01/02 12:30:30;;;;;;;13.10;8.25;;;11.70;1.00;;;;;;5122797;27;20039;-81
2024/01/02 12:33:10;;;;;;;16.08;8.40;;;11.70;1.00;;;;;;5121623;27;20046;-80
2024/01/02 12:35:58;;;;;;;15.30;8.75;;;11.80;1.00;;;;;;5103700;27;20047;-81
2024/01/02 12:38:31;;;;;;;13.65;8.20;;;11.90;1.00;;;;;;5127176;27;20496;-80
2024/01/02 12:41:03;;;;;;;13.48;8.15;;;12.00;1.00;;;;;;5124076;27;20508;-80
2024/01/02 12:43:34;;;;;;;13.57;9.13;;;12.20;1.00;;;;;;5132232;27;20043;-80
2024/01/02 12:46:09;;;;;;;13.32;8.05;;;12.30;1.00;;;;;;5122552;28;20035;-81
2024/01/02 12:48:41;;;;;;;13.30;8.55;;;12.40;1.00;;;;;;5122225;27;20126;-80
2024/01/02 12:51:11;;;;;;;15.85;10.18;;;12.50;1.00;;;;;;5122288;27;20047;-80
2024/01/02 12:53:41;;;;;;;13.85;9.43;;;12.50;1.00;;;;;;5121963;27;20128;-82
2024/01/02 12:56:17;;;;;;;18.08;11.38;;;12.50;1.00;;;;;;5126139;27;20040;-79
2024/01/02 12:58:46;;;;;;;17.73;10.45;;;12.60;1.00;;;;;;5129904;27;20069;-82